Time;durP1;ratioP1;P1;durP2;ratioP2;P2;SDS_P1;SDS_P2;PMS_P1;PMS_P2;Temp;Humidity;BMP_temperature;BMP_pressure;BME280_temperature;BME280_humidity;BME280_pressure;Samples;Min_cycle;Max_cycle;Signal;HPM_P1;HPM_P2
2022/08/17 00:01:55;;;;;;;5.25;3.60;;;;;;;23.09;51.49;94379.03;4170528;28;20130;-69
2022/08/17 00:03:57;;;;;;;6.30;3.78;;;;;;;23.01;51.52;94379.44;4175127;28;20128;-69
2022/08/17 00:06:10;;;;;;;8.40;3.72;;;;;;;22.99;51.88;94376.19;4175020;28;20357;-67
2022/08/17 00:08:15;;;;;;;5.82;3.63;;;;;;;22.99;51.74;94380.72;4173906;28;20060;-67
2022/08/17 00:10:17;;;;;;;5.75;3.70;;;;;;;22.93;51.96;94381.69;4156675;28;20465;-68
2022/08/17 00:12:21;;;;;;;6.65;3.88;;;;;;;22.99;51.64;94380.72;4171261;28;20045;-68
2022/08/17 00:14:43;;;;;;;5.82;4.05;;;;;;;22.99;51.35;94386.88;4159980;28;20697;-68
2022/08/17 00:16:48;;;;;;;5.57;3.75;;;;;;;22.94;51.68;94378.00;4170426;28;20147;-66
2022/08/17 00:18:59;;;;;;;5.22;3.70;;;;;;;22.93;51.66;94374.50;4162199;28;20398;-69
2022/08/17 00:21:10;;;;;;;5.68;3.55;;;;;;;22.99;51.46;94378.84;4174927;28;20436;-68
2022/08/17 00:23:15;;;;;;;8.85;3.38;;;;;;;23.04;51.28;94378.97;4156996;28;20140;-68
2022/08/17 00:25:18;;;;;;;5.68;3.38;;;;;;;23.05;51.03;94377.91;4172751;28;20418;-67
2022/08/17 00:27:21;;;;;;;8.80;4.00;;;;;;;23.08;50.42;94385.47;4124117;28;20141;-68
2022/08/17 00:29:23;;;;;;;6.63;3.70;;;;;;;23.13;50.27;94378.56;4157632;28;20351;-68
2022/08/17 00:31:25;;;;;;;5.10;3.83;;;;;;;23.18;50.42;94375.97;4157603;28;20057;-68
2022/08/17 00:33:32;;;;;;;5.03;3.40;;;;;;;23.21;50.25;94375.47;4174848;28;20669;-68
2022/08/17 00:35:34;;;;;;;6.40;3.65;;;;;;;23.21;50.35;94376.28;4174909;28;20048;-68
2022/08/17 00:37:36;;;;;;;5.35;3.75;;;;;;;23.25;50.27;94380.09;4174594;28;20048;-67
2022/08/17 00:39:38;;;;;;;7.10;3.42;;;;;;;23.26;50.12;94375.56;4175537;28;20052;-68
2022/08/17 00:41:40;;;;;;;5.22;3.75;;;;;;;23.20;50.82;94372.00;4156768;28;20088;-68
2022/08/17 00:43:50;;;;;;;5.90;4.07;;;;;;;23.22;50.79;94371.75;4175676;28;20081;-69
2022/08/17 00:45:52;;;;;;;5.28;3.35;;;;;;;23.22;51.01;94380.56;4175049;28;20063;-69
2022/08/17 00:47:54;;;;;;;4.75;3.45;;;;;;;23.25;50.49;94372.06;4175440;28;20484;-68
2022/08/17 00:49:56;;;;;;;7.57;3.90;;;;;;;23.22;50.15;94361.88;4175209;28;20472;-68
2022/08/17 00:52:05;;;;;;;6.82;3.50;;;;;;;23.25;50.21;94368.56;4173844;28;20561;-67
2022/08/17 00:54:31;;;;;;;6.90;4.15;;;;;;;23.22;50.99;94369.88;4158181;28;20049;-68
2022/08/17 00:56:45;;;;;;;8.00;3.75;;;;;;;23.22;51.10;94364.53;4164674;28;20053;-69
2022/08/17 00:58:48;;;;;;;5.65;3.50;;;;;;;23.18;50.83;94362.59;4157531;28;20050;-69
2022/08/17 01:00:50;;;;;;;5.82;3.88;;;;;;;23.18;51.19;94359.94;4152401;28;20122;-69
2022/08/17 01:02:56;;;;;;;5.65;4.05;;;;;;;23.15;51.28;94369.25;4145532;28;20128;-68
2022/08/17 01:04:59;;;;;;;5.20;4.15;;;;;;;23.13;51.98;94368.69;4157374;28;20053;-68
2022/08/17 01:07:03;;;;;;;6.32;4.45;;;;;;;23.10;52.16;94375.34;4173422;28;20061;-68
2022/08/17 01:09:07;;;;;;;7.20;4.40;;;;;;;23.07;52.49;94367.78;4168138;28;20061;-67
2022/08/17 01:11:09;;;;;;;5.88;4.43;;;;;;;23.05;52.96;94371.78;4151218;28;20500;-68
2022/08/17 01:13:11;;;;;;;8.40;4.75;;;;;;;23.00;53.43;94366.34;4174719;28;20124;-67
2022/08/17 01:15:14;;;;;;;8.45;4.30;;;;;;;22.92;53.35;94366.75;4174917;28;20508;-67
2022/08/17 01:17:16;;;;;;;7.95;4.80;;;;;;;22.87;53.51;94373.63;4174719;28;20049;-68
2022/08/17 01:19:24;;;;;;;5.22;4.22;;;;;;;22.81;52.86;94369.25;4156905;28;20045;-68
2022/08/17 01:21:32;;;;;;;8.13;4.95;;;;;;;22.80;52.87;94372.97;4159168;28;20255;-68
2022/08/17 01:23:35;;;;;;;6.57;4.18;;;;;;;22.73;53.99;94377.66;4153409;28;20049;-69
2022/08/17 01:25:37;;;;;;;6.45;4.00;;;;;;;22.65;53.75;94378.88;4174106;28;20413;-67
2022/08/17 01:27:40;;;;;;;8.23;3.95;;;;;;;22.54;54.50;94370.94;4157517;28;20052;-67
2022/08/17 01:29:45;;;;;;;12.25;4.60;;;;;;;22.36;55.62;94371.97;4177867;28;20162;-68
2022/08/17 01:31:51;;;;;;;8.88;4.63;;;;;;;22.26;55.70;94365.41;4159335;28;20438;-68
2022/08/17 01:33:53;;;;;;;8.30;5.18;;;;;;;22.13;56.69;94362.97;4141179;28;20046;-70
2022/08/17 01:35:55;;;;;;;7.75;4.80;;;;;;;22.15;56.59;94363.56;4157078;28;20091;-69
2022/08/17 01:37:57;;;;;;;7.60;5.10;;;;;;;22.18;55.82;94360.44;4167843;28;20361;-68
2022/08/17 01:40:06;;;;;;;6.03;4.80;;;;;;;22.25;55.54;94362.97;4159487;28;20128;-68
2022/08/17 01:42:23;;;;;;;5.63;4.35;;;;;;;22.26;55.17;94361.91;4151665;28;20054;-67
2022/08/17 01:44:26;;;;;;;5.57;3.75;;;;;;;22.25;53.61;94363.78;4144082;28;20137;-67
2022/08/17 01:46:32;;;;;;;8.07;4.00;;;;;;;22.26;53.16;94359.25;4160006;28;20544;-69
2022/08/17 01:48:37;;;;;;;5.38;3.72;;;;;;;22.29;53.60;94364.13;4169050;28;20053;-68
2022/08/17 01:50:40;;;;;;;5.30;3.78;;;;;;;22.18;53.30;94359.63;4178149;28;20052;-69
2022/08/17 01:52:44;;;;;;;8.77;4.00;;;;;;;21.97;53.50;94364.56;4175381;28;20110;-67
2022/08/17 01:54:46;;;;;;;5.82;3.33;;;;;;;21.91;53.60;94362.84;4148490;28;20041;-67
2022/08/17 01:56:50;;;;;;;8.23;3.78;;;;;;;21.83;54.17;94364.06;4151069;28;20049;-68
2022/08/17 01:58:52;;;;;;;4.53;3.47;;;;;;;21.73;54.20;94363.84;4164481;28;20207;-68
2022/08/17 02:00:54;;;;;;;7.93;4.38;;;;;;;21.53;54.61;94363.41;4176432;28;20060;-67
2022/08/17 02:03:02;;;;;;;10.50;4.15;;;;;;;21.32;55.82;94367.50;4176224;28;20136;-68
2022/08/17 02:05:05;;;;;;;6.00;4.00;;;;;;;21.28;55.57;94372.47;4176705;28;20053;-69
2022/08/17 02:07:07;;;;;;;6.05;4.10;;;;;;;21.38;55.32;94375.38;4174946;28;20117;-70
2022/08/17 02:09:09;;;;;;;5.78;4.03;;;;;;;21.43;55.39;94375.50;4152349;28;20061;-69
2022/08/17 02:11:19;;;;;;;7.70;4.40;;;;;;;21.50;55.06;94372.69;4154963;28;20488;-68
2022/08/17 02:13:21;;;;;;;6.75;4.15;;;;;;;21.55;55.25;94374.66;4161735;28;20053;-68
2022/08/17 02:15:24;;;;;;;9.02;4.32;;;;;;;21.60;55.29;94374.78;4167008;28;20048;-69
2022/08/17 02:17:26;;;;;;;4.97;3.65;;;;;;;21.64;55.15;94378.59;4167716;28;20061;-68
2022/08/17 02:19:30;;;;;;;9.30;4.00;;;;;;;21.65;55.16;94385.53;4156078;28;20131;-70
2022/08/17 02:21:32;;;;;;;6.35;3.97;;;;;;;21.72;55.22;94388.88;4160466;28;20481;-68
2022/08/17 02:23:37;;;;;;;6.75;4.07;;;;;;;21.79;54.99;94375.41;4141971;28;20133;-68
2022/08/17 02:25:41;;;;;;;7.35;4.20;;;;;;;21.80;55.00;94374.38;4148207;28;20192;-68
2022/08/17 02:27:44;;;;;;;7.40;4.07;;;;;;;21.78;55.33;94377.25;4177143;28;20106;-66
2022/08/17 02:29:45;;;;;;;5.78;4.75;;;;;;;21.84;55.51;94383.53;4163541;28;20525;-69
2022/08/17 02:31:48;;;;;;;6.93;4.88;;;;;;;21.86;56.41;94378.75;4177007;28;20060;-69
2022/08/17 02:33:50;;;;;;;8.35;4.88;;;;;;;21.84;56.79;94370.19;4176653;28;20492;-69
2022/08/17 02:36:07;;;;;;;6.25;4.68;;;;;;;21.80;56.68;94372.50;4164174;28;20172;-68
2022/08/17 02:38:09;;;;;;;8.57;4.47;;;;;;;21.79;56.43;94372.72;4175572;28;20049;-67
2022/08/17 02:40:11;;;;;;;11.30;4.55;;;;;;;21.80;55.48;94371.69;4175832;28;20078;-69
2022/08/17 02:42:14;;;;;;;6.63;4.10;;;;;;;21.78;54.95;94371.13;4175194;28;20144;-68
2022/08/17 02:44:15;;;;;;;6.90;3.95;;;;;;;21.79;54.27;94378.91;4176160;28;20045;-70
2022/08/17 02:46:37;;;;;;;6.32;4.60;;;;;;;21.78;54.22;94379.13;4175999;28;20492;-68
2022/08/17 02:48:39;;;;;;;10.18;4.18;;;;;;;21.74;53.77;94383.31;4141477;28;20050;-68
2022/08/17 02:50:41;;;;;;;5.25;4.07;;;;;;;21.73;54.02;94382.50;4164559;28;20044;-67
2022/08/17 02:52:45;;;;;;;6.00;3.90;;;;;;;21.70;54.27;94387.50;4175614;28;20232;-69
2022/08/17 02:55:08;;;;;;;9.73;3.95;;;;;;;21.71;54.55;94386.47;4175417;28;20064;-68
2022/08/17 02:57:10;;;;;;;13.25;4.70;;;;;;;21.72;54.47;94388.06;4145712;28;20101;-69
2022/08/17 02:59:12;;;;;;;5.32;3.90;;;;;;;21.69;54.47;94386.69;4175871;28;20106;-69
2022/08/17 03:01:14;;;;;;;7.45;3.97;;;;;;;21.66;54.10;94384.47;4176044;28;20140;-69
2022/08/17 03:03:19;;;;;;;5.18;3.75;;;;;;;21.65;54.13;94385.53;4170455;28;20060;-68
2022/08/17 03:05:24;;;;;;;11.88;5.25;;;;;;;21.52;56.00;94393.78;4158709;28;20046;-69
2022/08/17 03:07:26;;;;;;;6.50;4.30;;;;;;;21.26;56.59;94390.53;4156356;28;20642;-67
2022/08/17 03:09:28;;;;;;;8.70;4.80;;;;;;;21.13;57.01;94391.59;4176523;28;20057;-68
2022/08/17 03:11:29;;;;;;;7.60;4.53;;;;;;;21.14;57.29;94393.19;4175268;28;20052;-68
2022/08/17 03:13:31;;;;;;;7.63;4.55;;;;;;;21.21;56.99;94393.91;4176341;28;20254;-68
2022/08/17 03:15:34;;;;;;;8.45;5.53;;;;;;;21.26;56.91;94399.34;4175938;28;20048;-68
2022/08/17 03:17:41;;;;;;;9.18;5.30;;;;;;;21.28;57.17;94397.25;4176104;28;20052;-67
2022/08/17 03:19:43;;;;;;;10.88;6.07;;;;;;;21.30;58.34;94406.88;4175587;28;20132;-66
2022/08/17 03:21:45;;;;;;;10.05;6.85;;;;;;;21.26;59.41;94404.66;4174851;28;20419;-68
2022/08/17 03:23:56;;;;;;;12.00;6.65;;;;;;;21.19;59.54;94401.31;4164606;28;20052;-69
2022/08/17 03:25:59;;;;;;;7.97;5.93;;;;;;;21.17;58.69;94399.94;4174822;28;20484;-68
2022/08/17 03:28:02;;;;;;;9.52;4.90;;;;;;;21.23;58.46;94396.31;4176048;28;20141;-69
2022/08/17 03:30:05;;;;;;;14.63;5.63;;;;;;;21.27;58.40;94403.63;4175107;28;20053;-69
2022/08/17 03:32:13;;;;;;;;;;;;;;;21.35;58.55;94407.00;4176268;28;20049;-68
2022/08/17 03:34:15;;;;;;;10.20;5.80;;;;;;;21.38;58.34;94403.84;4168052;28;19921;-69
2022/08/17 03:36:17;;;;;;;9.38;5.70;;;;;;;21.42;58.25;94403.19;4141490;28;20104;-69
2022/08/17 03:38:19;;;;;;;10.57;5.95;;;;;;;21.42;58.42;94394.38;4163420;28;20098;-69
2022/08/17 03:40:22;;;;;;;7.30;5.70;;;;;;;21.46;58.38;94400.84;4163479;28;20087;-67
2022/08/17 03:42:44;;;;;;;11.48;6.20;;;;;;;21.45;58.90;94405.38;4172996;28;20045;-68
2022/08/17 03:44:51;;;;;;;9.07;6.40;;;;;;;21.30;59.72;94409.56;4168076;28;20041;-68
2022/08/17 03:58:40;;;;;;;11.05;6.55;;;;;;;21.44;59.50;94410.94;4175906;28;20045;-69
2022/08/17 04:00:44;;;;;;;8.63;6.78;;;;;;;21.48;59.44;94417.44;4166524;28;20075;-68
2022/08/17 04:02:47;;;;;;;11.05;7.20;;;;;;;21.55;59.05;94417.28;4166309;28;20076;-67
2022/08/17 04:04:49;;;;;;;11.32;6.32;;;;;;;21.58;59.05;94422.19;4149674;28;20058;-69
2022/08/17 04:06:52;;;;;;;9.95;6.30;;;;;;;21.62;59.22;94418.81;4174000;28;20099;-66
2022/08/17 04:08:54;;;;;;;8.50;6.32;;;;;;;21.64;59.12;94415.91;4173055;28;20063;-69
2022/08/17 04:10:56;;;;;;;12.82;7.10;;;;;;;21.73;59.34;94419.03;4162123;28;20057;-68
2022/08/17 04:12:59;;;;;;;10.38;6.75;;;;;;;21.78;59.01;94425.25;4162854;28;20068;-67
2022/08/17 04:15:01;;;;;;;14.50;7.70;;;;;;;21.79;58.97;94418.88;4170139;28;20075;-68
2022/08/17 04:17:04;;;;;;;9.07;6.90;;;;;;;21.81;58.87;94431.97;4162708;28;20119;-67
2022/08/17 04:19:06;;;;;;;9.68;6.75;;;;;;;21.83;59.00;94424.53;4162817;28;20433;-68
2022/08/17 04:21:08;;;;;;;12.80;7.13;;;;;;;21.84;59.20;94429.66;4171855;28;20052;-68
2022/08/17 04:23:15;;;;;;;12.20;7.10;;;;;;;21.90;58.92;94435.91;4157012;28;20071;-69
2022/08/17 04:25:18;;;;;;;10.52;6.90;;;;;;;21.93;58.95;94439.94;4141446;28;20054;-69
2022/08/17 04:27:20;;;;;;;9.10;6.95;;;;;;;21.99;58.98;94439.81;4147894;28;20593;-69
2022/08/17 04:29:22;;;;;;;11.63;6.82;;;;;;;21.97;58.79;94441.91;4169248;28;20494;-69
2022/08/17 04:31:25;;;;;;;7.85;6.80;;;;;;;21.99;58.54;94439.00;4154945;28;20058;-69
2022/08/17 04:33:28;;;;;;;10.50;7.67;;;;;;;21.98;58.81;94443.53;4175638;28;20060;-68
2022/08/17 04:35:33;;;;;;;14.18;7.65;;;;;;;22.02;58.79;94441.19;4170712;28;20049;-68
2022/08/17 04:37:35;;;;;;;10.82;6.85;;;;;;;22.09;58.46;94442.69;4171810;28;20520;-68
2022/08/17 04:39:37;;;;;;;10.55;7.50;;;;;;;22.13;58.32;94451.00;4174032;28;20287;-68
2022/08/17 04:44:00;;;;;;;11.00;7.47;;;;;;;22.23;58.01;94455.78;4169184;28;20128;-69
2022/08/17 04:46:07;;;;;;;14.38;8.00;;;;;;;22.19;57.70;94450.06;4168866;28;20041;-70
2022/08/17 04:48:09;;;;;;;14.23;8.07;;;;;;;22.14;57.93;94458.00;4170904;28;20052;-70
2022/08/17 04:50:11;;;;;;;16.15;8.18;;;;;;;22.07;58.24;94454.66;4157466;28;20202;-67
2022/08/17 04:52:13;;;;;;;9.93;7.07;;;;;;;22.05;58.37;94457.53;4167565;28;20049;-69
2022/08/17 04:54:35;;;;;;;12.98;7.88;;;;;;;22.09;58.35;94455.19;4164356;28;20056;-67
2022/08/17 04:56:37;;;;;;;10.32;7.80;;;;;;;22.14;57.92;94460.66;4170746;28;20049;-66
2022/08/17 04:58:39;;;;;;;17.60;7.97;;;;;;;22.22;57.80;94459.44;4168741;28;20048;-68
2022/08/17 05:00:41;;;;;;;14.13;7.78;;;;;;;22.25;57.64;94459.03;4170648;28;20064;-68
2022/08/17 05:02:46;;;;;;;11.93;8.18;;;;;;;22.33;56.93;94464.00;4169221;28;20049;-68
2022/08/17 05:04:51;;;;;;;11.50;7.75;;;;;;;22.40;57.13;94461.97;4161333;28;20044;-68
2022/08/17 05:06:55;;;;;;;12.00;7.75;;;;;;;22.51;56.89;94462.19;4174868;28;20133;-68
2022/08/17 05:08:58;;;;;;;11.93;8.10;;;;;;;22.56;56.71;94455.06;4172623;28;20059;-68
2022/08/17 05:11:00;;;;;;;13.20;9.00;;;;;;;22.64;56.44;94454.66;4152390;28;20065;-68
2022/08/17 05:13:23;;;;;;;13.68;7.43;;;;;;;22.67;56.26;94459.53;4165658;28;20064;-68
2022/08/17 05:15:26;;;;;;;11.85;7.43;;;;;;;22.74;56.28;94454.06;4150240;28;20135;-69
2022/08/17 05:17:28;;;;;;;12.23;8.07;;;;;;;22.80;55.81;94455.75;4161943;28;20055;-69
2022/08/17 05:19:30;;;;;;;14.40;8.32;;;;;;;22.86;55.87;94453.97;4161669;28;20350;-68
2022/08/17 05:21:32;;;;;;;12.90;8.13;;;;;;;22.92;55.63;94462.91;4178149;28;20044;-67
2022/08/17 05:23:35;;;;;;;10.65;8.02;;;;;;;23.00;55.50;94458.00;4166110;28;20477;-67
2022/08/17 05:25:49;;;;;;;14.98;8.25;;;;;;;23.04;55.08;94461.00;4163886;28;20053;-68
2022/08/17 05:27:52;;;;;;;12.60;8.88;;;;;;;23.05;55.24;94458.06;4168625;28;20067;-69
2022/08/17 05:29:53;;;;;;;16.65;8.32;;;;;;;23.15;54.79;94467.31;4177810;28;20053;-69
2022/08/17 05:31:55;;;;;;;10.70;8.10;;;;;;;23.18;54.97;94462.28;4178167;28;20088;-67
2022/08/17 05:33:58;;;;;;;13.73;8.63;;;;;;;23.21;54.90;94461.81;4177953;28;20061;-69
2022/08/17 05:36:01;;;;;;;12.85;8.50;;;;;;;23.23;54.89;94467.72;4177992;28;20045;-72
2022/08/17 05:38:03;;;;;;;16.77;9.90;;;;;;;23.24;55.05;94465.84;4172506;28;20094;-70
2022/08/17 05:40:06;;;;;;;11.32;9.05;;;;;;;23.29;55.16;94458.69;4171295;28;20053;-68
2022/08/17 05:42:09;;;;;;;13.07;8.30;;;;;;;23.37;55.15;94470.06;4177225;28;20074;-70
2022/08/17 05:44:11;;;;;;;16.65;9.57;;;;;;;23.38;55.05;94464.47;4165422;28;20049;-69
2022/08/17 05:46:39;;;;;;;13.07;8.55;;;;;;;23.41;55.00;94466.66;4177800;28;20087;-68
2022/08/17 05:48:46;;;;;;;22.30;9.85;;;;;;;23.40;54.65;94469.56;4156528;28;20140;-69
2022/08/17 05:51:25;;;;;;;17.83;9.05;;;;;;;23.39;55.37;94466.06;4177371;28;20053;-69
2022/08/17 05:53:39;;;;;;;17.52;9.48;;;;;;;23.38;54.74;94458.28;4176445;28;20049;-69
2022/08/17 05:55:56;;;;;;;14.43;9.35;;;;;;;23.19;55.13;94463.91;4159363;28;20555;-68
2022/08/17 05:58:07;;;;;;;16.88;9.20;;;;;;;23.06;55.24;94467.72;4160044;28;20088;-69
2022/08/17 06:00:20;;;;;;;17.02;9.23;;;;;;;23.07;55.65;94466.66;4164438;28;20150;-69
2022/08/17 06:02:45;;;;;;;18.08;9.05;;;;;;;23.07;56.15;94468.50;4177662;28;20057;-69
2022/08/17 06:05:32;;;;;;;15.27;8.85;;;;;;;23.04;55.53;94463.66;4148724;28;20052;-69
2022/08/17 06:07:44;;;;;;;15.05;9.20;;;;;;;22.81;56.04;94468.06;4171707;28;20378;-69
2022/08/17 06:09:57;;;;;;;15.40;8.80;;;;;;;22.81;56.47;94476.06;4165333;28;20045;-67
2022/08/17 06:12:06;;;;;;;28.20;9.52;;;;;;;22.70;56.51;94471.59;4143189;28;20143;-68
2022/08/17 06:14:26;;;;;;;18.38;9.02;;;;;;;22.68;56.66;94468.38;4160644;28;20041;-69
2022/08/17 06:16:30;;;;;;;;;;;;;;;22.73;56.43;94470.31;4161442;28;20068;-67
2022/08/17 06:18:50;;;;;;;15.95;8.38;;;;;;;22.86;55.99;94467.31;4166870;28;20031;-69
2022/08/17 06:21:06;;;;;;;18.92;8.10;;;;;;;22.89;55.32;94459.66;4159639;28;20084;-70
2022/08/17 06:23:20;;;;;;;14.68;7.97;;;;;;;22.95;55.40;94465.06;4149346;28;20092;-68
2022/08/17 06:25:29;;;;;;;14.25;7.53;;;;;;;23.06;54.82;94467.72;4141771;28;20362;-69
2022/08/17 06:27:58;;;;;;;18.25;8.75;;;;;;;22.89;54.93;94470.34;4151474;28;20046;-67
2022/08/17 06:30:14;;;;;;;16.17;8.15;;;;;;;22.72;55.51;94474.84;4154156;28;20114;-68
2022/08/17 06:32:17;;;;;;;12.63;8.13;;;;;;;22.79;56.13;94472.03;4172018;28;20429;-67
2022/08/17 06:34:19;;;;;;;14.02;8.35;;;;;;;22.89;55.57;94469.53;4161361;28;20081;-68
2022/08/17 06:36:46;;;;;;;15.57;8.73;;;;;;;23.10;55.34;94465.34;4160823;28;20055;-67
2022/08/17 06:39:27;;;;;;;18.25;8.07;;;;;;;23.34;54.84;94471.34;4160591;28;20054;-68
2022/08/17 06:41:36;;;;;;;15.30;8.38;;;;;;;23.43;54.78;94461.06;4149892;28;20045;-68
2022/08/17 06:44:37;;;;;;;18.98;7.88;;;;;;;23.63;54.08;94468.56;4160643;28;20111;-68
2022/08/17 06:46:57;;;;;;;15.52;7.85;;;;;;;23.78;53.83;94455.44;4104951;28;20106;-67
2022/08/17 06:49:08;;;;;;;12.80;7.20;;;;;;;23.79;53.43;94462.41;4139712;28;20191;-66
2022/08/17 06:51:22;;;;;;;15.70;7.82;;;;;;;23.96;52.85;94456.97;4159045;28;20081;-68
2022/08/17 06:53:30;;;;;;;15.00;7.80;;;;;;;24.05;52.65;94460.88;4157893;28;20554;-68
2022/08/17 06:55:49;;;;;;;14.98;6.75;;;;;;;24.05;52.20;94455.50;4163667;28;20404;-67
2022/08/17 06:57:56;;;;;;;11.60;6.60;;;;;;;23.90;52.11;94450.78;4159106;28;20091;-66
2022/08/17 07:00:07;;;;;;;11.65;5.90;;;;;;;23.98;52.09;94451.38;4142180;28;20046;-67
2022/08/17 07:02:15;;;;;;;14.27;5.80;;;;;;;24.19;51.72;94450.56;4154104;28;20053;-70
2022/08/17 07:04:20;;;;;;;14.05;6.70;;;;;;;24.45;51.30;94456.22;4176520;28;20045;-68
2022/08/17 07:08:00;;;;;;;13.43;5.88;;;;;;;24.52;50.75;94459.53;4159356;28;20069;-68
2022/08/17 07:09:28;;;;;;;13.13;6.50;;;;;;;24.39;51.16;94460.69;4137945;28;20174;-69
2022/08/17 07:11:56;;;;;;;9.88;5.95;;;;;;;24.39;51.30;94458.03;4158463;28;20480;-67
2022/08/17 07:13:58;;;;;;;15.48;6.75;;;;;;;24.58;50.89;94457.72;4176340;28;20431;-69
2022/08/17 07:16:09;;;;;;;10.13;5.82;;;;;;;24.79;50.87;94461.41;4175235;28;20475;-68
2022/08/17 07:18:11;;;;;;;16.30;5.95;;;;;;;24.98;49.97;94460.00;4157569;28;20076;-71
2022/08/17 07:20:18;;;;;;;12.68;5.45;;;;;;;25.15;49.59;94457.19;4157999;28;20107;-69
2022/08/17 07:22:59;;;;;;;12.48;7.05;;;;;;;25.30;49.01;94451.97;4175730;28;20048;-68
2022/08/17 07:25:08;;;;;;;13.35;7.97;;;;;;;25.38;48.67;94453.34;4159210;28;20084;-68
2022/08/17 07:27:20;;;;;;;12.95;7.40;;;;;;;25.37;48.88;94459.00;4141327;28;20042;-68
2022/08/17 07:29:22;;;;;;;12.80;6.97;;;;;;;25.48;48.71;94456.09;4170136;28;20061;-68
2022/08/17 07:31:25;;;;;;;13.85;7.35;;;;;;;25.68;48.61;94454.63;4158115;28;20096;-67
2022/08/17 07:33:29;;;;;;;13.80;5.50;;;;;;;25.61;47.99;94456.72;4175785;28;20094;-68
2022/08/17 07:35:43;;;;;;;15.20;5.60;;;;;;;25.36;48.80;94460.03;4175945;28;20049;-69
2022/08/17 07:37:53;;;;;;;11.80;5.65;;;;;;;25.32;49.17;94457.09;4172694;28;20057;-69
2022/08/17 07:39:55;;;;;;;21.73;6.05;;;;;;;25.40;49.23;94456.56;4168079;28;20061;-67
2022/08/17 07:42:17;;;;;;;11.57;6.07;;;;;;;25.69;48.38;94449.00;4174721;28;20194;-69
2022/08/17 07:44:19;;;;;;;9.95;5.30;;;;;;;25.86;48.35;94458.75;4157399;28;20052;-69
2022/08/17 07:48:49;;;;;;;10.02;5.43;;;;;;;25.88;47.77;94451.25;4175261;28;20048;-68
2022/08/17 07:50:52;;;;;;;15.73;5.57;;;;;;;25.79;48.86;94450.13;4165149;28;20051;-68
2022/08/17 07:52:54;;;;;;;10.60;5.72;;;;;;;25.85;48.92;94451.75;4174653;28;20049;-68
2022/08/17 07:54:57;;;;;;;16.10;5.60;;;;;;;25.91;48.74;94454.25;4163627;28;20677;-68
2022/08/17 07:57:07;;;;;;;12.10;6.43;;;;;;;26.07;48.45;94457.81;4154298;28;20050;-68
2022/08/17 07:59:19;;;;;;;9.50;5.32;;;;;;;26.27;47.81;94454.41;4159534;28;20314;-69
2022/08/17 08:01:24;;;;;;;16.52;6.07;;;;;;;26.52;47.47;94452.84;4172632;28;20056;-68
2022/08/17 08:03:42;;;;;;;12.45;5.80;;;;;;;26.41;47.30;94452.00;4164142;28;20056;-69
2022/08/17 08:05:55;;;;;;;14.55;5.72;;;;;;;26.49;47.09;94443.44;4157281;28;20157;-70
2022/08/17 08:08:00;;;;;;;8.55;4.38;;;;;;;26.66;46.77;94453.19;4149867;28;20465;-67
2022/08/17 08:10:39;;;;;;;9.18;4.70;;;;;;;26.33;45.40;94460.59;4156243;28;20448;-67
2022/08/17 08:12:47;;;;;;;6.90;4.83;;;;;;;26.44;45.82;94448.03;4129902;28;20049;-67
2022/08/17 08:14:57;;;;;;;7.75;5.20;;;;;;;26.59;45.34;94455.31;4154815;28;20053;-67
2022/08/17 08:17:03;;;;;;;11.93;5.72;;;;;;;26.38;44.77;94454.44;4155615;28;20425;-69
2022/08/17 08:19:07;;;;;;;5.25;4.45;;;;;;;26.25;45.01;94450.38;4173748;28;20099;-70
2022/08/17 08:21:32;;;;;;;8.35;4.85;;;;;;;26.24;45.34;94440.69;4173244;28;20079;-68
2022/08/17 08:23:49;;;;;;;8.95;5.18;;;;;;;26.43;45.13;94446.38;4156162;28;20053;-70
2022/08/17 08:26:04;;;;;;;7.55;4.80;;;;;;;26.64;44.06;94445.41;4149003;28;20128;-69
2022/08/17 08:28:39;;;;;;;9.80;4.85;;;;;;;26.81;43.33;94439.78;4157311;28;20205;-68
2022/08/17 08:31:00;;;;;;;8.18;5.15;;;;;;;26.88;43.16;94440.31;4118288;28;20060;-68
2022/08/17 08:33:24;;;;;;;9.95;5.07;;;;;;;26.87;43.13;94436.03;4145879;28;20134;-68
2022/08/17 08:35:39;;;;;;;8.95;4.85;;;;;;;27.10;42.46;94433.88;4139631;28;20054;-68
2022/08/17 08:37:45;;;;;;;5.63;4.30;;;;;;;27.14;41.61;94432.28;4149300;28;20041;-67
2022/08/17 08:40:01;;;;;;;8.00;4.20;;;;;;;27.11;41.66;94422.06;4180999;28;20156;-69
2022/08/17 08:42:12;;;;;;;9.15;3.80;;;;;;;26.99;41.84;94435.75;4179718;28;20045;-67
2022/08/17 08:44:32;;;;;;;6.35;4.25;;;;;;;27.14;42.74;94421.50;4162776;28;20045;-67
2022/08/17 08:47:06;;;;;;;5.68;4.10;;;;;;;26.98;42.20;94428.78;4180018;28;20117;-70
2022/08/17 08:49:30;;;;;;;11.38;4.50;;;;;;;27.10;42.32;94431.19;4169278;28;20051;-69
2022/08/17 08:52:00;;;;;;;7.22;3.90;;;;;;;27.22;39.50;94420.22;4178093;28;20048;-69
2022/08/17 08:54:33;;;;;;;5.70;3.60;;;;;;;27.32;39.26;94430.97;4157623;28;20050;-68
2022/08/17 08:57:04;;;;;;;7.60;2.85;;;;;;;27.46;38.49;94417.75;4176524;28;20045;-68
2022/08/17 08:59:34;;;;;;;5.32;2.90;;;;;;;27.67;38.39;94427.41;4155752;28;20061;-69
2022/08/17 09:01:48;;;;;;;4.30;2.92;;;;;;;27.68;37.92;94420.94;4158642;28;20053;-67
2022/08/17 09:03:56;;;;;;;11.32;3.08;;;;;;;27.88;37.34;94422.00;4180347;28;20095;-69
2022/08/17 09:06:24;;;;;;;5.40;3.20;;;;;;;27.95;37.69;94428.69;4166171;28;20057;-66
2022/08/17 09:09:01;;;;;;;7.50;3.53;;;;;;;28.01;38.17;94423.28;4177768;28;20163;-68
2022/08/17 09:11:21;;;;;;;5.22;3.65;;;;;;;27.91;38.34;94429.53;4173056;28;20566;-68
2022/08/17 09:13:40;;;;;;;4.47;2.85;;;;;;;28.08;38.04;94415.72;4180643;28;20045;-68
2022/08/17 09:15:48;;;;;;;4.97;3.30;;;;;;;28.13;38.18;94423.78;4180643;28;20053;-68
2022/08/17 09:18:09;;;;;;;6.88;3.20;;;;;;;28.24;38.03;94421.84;4162616;28;20052;-69
2022/08/17 09:20:46;;;;;;;6.60;3.97;;;;;;;28.42;37.41;94417.72;4148837;28;20080;-68
2022/08/17 09:23:05;;;;;;;4.95;3.70;;;;;;;28.22;36.83;94424.00;4177878;28;20068;-69
2022/08/17 09:25:21;;;;;;;11.50;3.80;;;;;;;28.16;36.90;94429.44;4169767;28;20548;-68
2022/08/17 09:27:29;;;;;;;7.88;3.63;;;;;;;27.83;37.67;94430.03;4167107;28;20061;-68
2022/08/17 09:29:35;;;;;;;8.00;3.30;;;;;;;27.95;37.96;94426.00;4157938;28;20460;-69
2022/08/17 09:31:54;;;;;;;6.50;3.88;;;;;;;28.05;37.92;94432.41;4146471;28;20053;-68
2022/08/17 09:33:58;;;;;;;5.93;3.75;;;;;;;27.79;38.28;94429.78;4162603;28;20549;-69
2022/08/17 09:36:08;;;;;;;6.45;3.33;;;;;;;28.12;37.93;94419.50;4166291;28;20254;-68
2022/08/17 09:38:25;;;;;;;7.30;3.70;;;;;;;28.00;38.21;94427.06;4155613;28;20161;-68
2022/08/17 09:40:55;;;;;;;6.93;3.40;;;;;;;27.88;38.16;94419.31;4176544;28;20049;-72
2022/08/17 09:43:05;;;;;;;6.72;4.13;;;;;;;28.05;38.28;94417.09;4164894;28;20457;-70
2022/08/17 09:45:27;;;;;;;10.70;4.03;;;;;;;28.19;37.75;94420.78;4157265;28;20057;-68
2022/08/17 09:47:44;;;;;;;6.28;3.42;;;;;;;28.21;37.25;94419.72;4156624;28;20045;-68
2022/08/17 09:49:49;;;;;;;7.43;3.38;;;;;;;28.28;37.21;94407.53;4168841;28;20083;-69
2022/08/17 09:51:57;;;;;;;9.73;3.80;;;;;;;28.34;36.77;94416.41;4156380;28;20050;-67
2022/08/17 09:53:59;;;;;;;5.60;3.30;;;;;;;28.21;35.99;94423.22;4165871;28;20152;-65
2022/08/17 09:56:55;;;;;;;6.05;3.38;;;;;;;27.70;37.26;94429.53;4152268;28;20072;-67
2022/08/17 09:59:28;;;;;;;5.25;3.50;;;;;;;28.02;37.15;94411.44;4095394;28;20126;-68
2022/08/17 10:01:49;;;;;;;7.53;3.88;;;;;;;28.02;37.71;94408.75;4164898;28;20086;-67
2022/08/17 10:04:11;;;;;;;5.68;4.13;;;;;;;28.39;37.04;94409.13;4150066;28;20439;-67
2022/08/17 10:06:22;;;;;;;8.85;3.58;;;;;;;28.66;34.37;94402.50;4133409;28;20144;-66
2022/08/17 10:08:33;;;;;;;5.80;3.03;;;;;;;28.81;34.68;94415.09;4157984;28;20063;-68
2022/08/17 10:10:51;;;;;;;4.72;2.83;;;;;;;28.77;34.98;94400.56;4147010;28;20053;-68
2022/08/17 10:13:08;;;;;;;7.40;3.15;;;;;;;28.86;35.07;94403.44;4148996;28;20101;-71
2022/08/17 10:15:13;;;;;;;7.18;3.63;;;;;;;29.10;35.15;94403.56;4166422;28;20048;-70
2022/08/17 10:17:23;;;;;;;6.63;3.65;;;;;;;28.55;35.41;94393.69;4155084;28;20530;-68
2022/08/17 10:19:40;;;;;;;8.63;3.92;;;;;;;28.48;35.73;94387.81;4177421;28;20056;-68
2022/08/17 10:27:36;;;;;;;6.72;3.53;;;;;;;28.92;35.19;94405.03;4151327;28;20124;-69
2022/08/17 10:29:44;;;;;;;10.70;3.60;;;;;;;29.02;35.10;94394.19;4177186;28;20052;-68